sensor_id;sensor_type;location;lat;lon;timestamp;P1;durP1;ratioP1;P2;durP2;ratioP2
19566;SDS011;9930;49.240;8.548;2022-08-19T00:02:04;13.48;;;12.30;;
19566;SDS011;9930;49.240;8.548;2022-08-19T00:04:35;13.18;;;12.07;;
19566;SDS011;9930;49.240;8.548;2022-08-19T00:07:08;13.50;;;12.30;;
19566;SDS011;9930;49.240;8.548;2022-08-19T00:09:36;13.30;;;12.10;;
19566;SDS011;9930;49.240;8.548;2022-08-19T00:12:05;13.18;;;12.13;;
19566;SDS011;9930;49.240;8.548;2022-08-19T00:14:36;13.00;;;11.90;;
19566;SDS011;9930;49.240;8.548;2022-08-19T00:17:08;13.38;;;12.27;;
19566;SDS011;9930;49.240;8.548;2022-08-19T00:19:38;12.75;;;11.73;;
19566;SDS011;9930;49.240;8.548;2022-08-19T00:22:07;12.90;;;11.85;;
19566;SDS011;9930;49.240;8.548;2022-08-19T00:24:37;14.70;;;13.48;;
19566;SDS011;9930;49.240;8.548;2022-08-19T00:27:08;13.75;;;12.65;;
19566;SDS011;9930;49.240;8.548;2022-08-19T00:29:37;13.82;;;12.63;;
19566;SDS011;9930;49.240;8.548;2022-08-19T00:32:07;13.35;;;12.25;;
19566;SDS011;9930;49.240;8.548;2022-08-19T00:34:36;13.00;;;11.88;;
19566;SDS011;9930;49.240;8.548;2022-08-19T00:37:06;14.30;;;13.10;;
19566;SDS011;9930;49.240;8.548;2022-08-19T00:39:42;14.98;;;13.77;;
19566;SDS011;9930;49.240;8.548;2022-08-19T00:42:09;13.73;;;12.57;;
19566;SDS011;9930;49.240;8.548;2022-08-19T00:44:41;14.43;;;13.23;;
19566;SDS011;9930;49.240;8.548;2022-08-19T00:47:08;13.50;;;12.35;;
19566;SDS011;9930;49.240;8.548;2022-08-19T00:49:38;13.63;;;12.52;;
19566;SDS011;9930;49.240;8.548;2022-08-19T00:52:19;13.82;;;12.63;;
19566;SDS011;9930;49.240;8.548;2022-08-19T00:54:54;13.05;;;12.00;;
19566;SDS011;9930;49.240;8.548;2022-08-19T00:57:24;15.52;;;14.13;;
19566;SDS011;9930;49.240;8.548;2022-08-19T01:00:07;14.07;;;12.88;;
19566;SDS011;9930;49.240;8.548;2022-08-19T01:02:38;15.23;;;14.02;;
19566;SDS011;9930;49.240;8.548;2022-08-19T01:05:10;14.05;;;12.90;;
19566;SDS011;9930;49.240;8.548;2022-08-19T01:07:44;14.77;;;13.57;;
19566;SDS011;9930;49.240;8.548;2022-08-19T01:10:16;14.98;;;13.77;;
19566;SDS011;9930;49.240;8.548;2022-08-19T01:12:48;15.43;;;14.13;;
19566;SDS011;9930;49.240;8.548;2022-08-19T01:15:19;14.65;;;13.35;;
19566;SDS011;9930;49.240;8.548;2022-08-19T01:18:01;14.85;;;13.55;;
19566;SDS011;9930;49.240;8.548;2022-08-19T01:20:37;14.70;;;13.45;;
19566;SDS011;9930;49.240;8.548;2022-08-19T01:23:08;15.02;;;13.73;;
19566;SDS011;9930;49.240;8.548;2022-08-19T01:25:47;15.13;;;13.88;;
19566;SDS011;9930;49.240;8.548;2022-08-19T01:28:21;14.23;;;13.13;;
19566;SDS011;9930;49.240;8.548;2022-08-19T01:30:53;14.63;;;13.43;;
19566;SDS011;9930;49.240;8.548;2022-08-19T01:33:22;14.65;;;13.35;;
19566;SDS011;9930;49.240;8.548;2022-08-19T01:35:52;14.00;;;12.80;;
19566;SDS011;9930;49.240;8.548;2022-08-19T01:38:25;13.80;;;12.70;;
19566;SDS011;9930;49.240;8.548;2022-08-19T01:40:52;14.00;;;12.90;;
19566;SDS011;9930;49.240;8.548;2022-08-19T01:43:18;14.25;;;13.05;;
19566;SDS011;9930;49.240;8.548;2022-08-19T01:45:46;14.13;;;12.93;;
19566;SDS011;9930;49.240;8.548;2022-08-19T01:48:12;14.93;;;13.68;;
19566;SDS011;9930;49.240;8.548;2022-08-19T01:50:39;13.50;;;12.50;;
19566;SDS011;9930;49.240;8.548;2022-08-19T01:53:08;13.50;;;12.45;;
19566;SDS011;9930;49.240;8.548;2022-08-19T01:55:40;14.40;;;13.20;;
19566;SDS011;9930;49.240;8.548;2022-08-19T01:58:11;14.10;;;12.90;;
19566;SDS011;9930;49.240;8.548;2022-08-19T02:00:41;15.02;;;13.82;;
19566;SDS011;9930;49.240;8.548;2022-08-19T02:03:08;15.68;;;14.40;;
19566;SDS011;9930;49.240;8.548;2022-08-19T02:05:38;15.43;;;14.13;;
19566;SDS011;9930;49.240;8.548;2022-08-19T02:08:08;14.35;;;13.25;;
19566;SDS011;9930;49.240;8.548;2022-08-19T02:10:39;13.43;;;12.32;;
19566;SDS011;9930;49.240;8.548;2022-08-19T02:13:08;14.30;;;13.10;;
19566;SDS011;9930;49.240;8.548;2022-08-19T02:15:37;14.55;;;13.25;;
19566;SDS011;9930;49.240;8.548;2022-08-19T02:18:07;13.90;;;12.80;;
19566;SDS011;9930;49.240;8.548;2022-08-19T02:20:36;14.68;;;13.48;;
19566;SDS011;9930;49.240;8.548;2022-08-19T02:23:08;13.30;;;12.20;;
19566;SDS011;9930;49.240;8.548;2022-08-19T02:25:39;14.65;;;13.45;;
19566;SDS011;9930;49.240;8.548;2022-08-19T02:28:07;14.07;;;12.88;;
19566;SDS011;9930;49.240;8.548;2022-08-19T02:30:38;14.05;;;12.95;;
19566;SDS011;9930;49.240;8.548;2022-08-19T02:33:11;13.73;;;12.63;;
19566;SDS011;9930;49.240;8.548;2022-08-19T02:35:42;14.48;;;13.27;;
19566;SDS011;9930;49.240;8.548;2022-08-19T02:38:12;15.00;;;13.80;;
19566;SDS011;9930;49.240;8.548;2022-08-19T02:40:59;15.27;;;14.05;;
19566;SDS011;9930;49.240;8.548;2022-08-19T02:43:38;15.23;;;13.93;;
19566;SDS011;9930;49.240;8.548;2022-08-19T02:46:13;15.73;;;14.48;;
19566;SDS011;9930;49.240;8.548;2022-08-19T02:48:49;15.02;;;13.75;;
19566;SDS011;9930;49.240;8.548;2022-08-19T02:51:33;15.05;;;13.85;;
19566;SDS011;9930;49.240;8.548;2022-08-19T02:54:11;14.25;;;13.15;;
19566;SDS011;9930;49.240;8.548;2022-08-19T02:56:39;15.23;;;13.90;;
19566;SDS011;9930;49.240;8.548;2022-08-19T02:59:08;15.90;;;14.63;;
19566;SDS011;9930;49.240;8.548;2022-08-19T03:01:38;16.70;;;15.30;;
19566;SDS011;9930;49.240;8.548;2022-08-19T03:04:14;16.20;;;14.90;;
19566;SDS011;9930;49.240;8.548;2022-08-19T03:06:41;17.23;;;15.73;;
19566;SDS011;9930;49.240;8.548;2022-08-19T03:09:10;16.48;;;15.10;;
19566;SDS011;9930;49.240;8.548;2022-08-19T03:11:41;17.13;;;15.80;;
19566;SDS011;9930;49.240;8.548;2022-08-19T03:14:08;16.73;;;15.32;;
19566;SDS011;9930;49.240;8.548;2022-08-19T03:16:43;15.90;;;14.70;;
19566;SDS011;9930;49.240;8.548;2022-08-19T03:19:18;16.95;;;15.57;;
19566;SDS011;9930;49.240;8.548;2022-08-19T03:21:47;17.60;;;16.20;;
19566;SDS011;9930;49.240;8.548;2022-08-19T03:24:14;16.02;;;14.50;;
19566;SDS011;9930;49.240;8.548;2022-08-19T03:26:43;15.32;;;14.05;;
19566;SDS011;9930;49.240;8.548;2022-08-19T03:29:22;15.70;;;14.40;;
19566;SDS011;9930;49.240;8.548;2022-08-19T03:31:51;16.23;;;14.93;;
19566;SDS011;9930;49.240;8.548;2022-08-19T03:34:18;16.08;;;14.75;;
19566;SDS011;9930;49.240;8.548;2022-08-19T03:36:53;17.02;;;15.63;;
19566;SDS011;9930;49.240;8.548;2022-08-19T03:39:21;16.38;;;14.93;;
19566;SDS011;9930;49.240;8.548;2022-08-19T03:41:51;16.30;;;14.95;;
19566;SDS011;9930;49.240;8.548;2022-08-19T03:44:27;16.45;;;15.10;;
19566;SDS011;9930;49.240;8.548;2022-08-19T03:46:56;16.63;;;15.23;;
19566;SDS011;9930;49.240;8.548;2022-08-19T03:49:25;16.08;;;14.77;;
19566;SDS011;9930;49.240;8.548;2022-08-19T03:51:59;16.67;;;15.35;;
19566;SDS011;9930;49.240;8.548;2022-08-19T03:54:26;16.42;;;14.98;;
19566;SDS011;9930;49.240;8.548;2022-08-19T03:56:56;16.58;;;15.20;;
19566;SDS011;9930;49.240;8.548;2022-08-19T03:59:29;15.85;;;14.50;;
19566;SDS011;9930;49.240;8.548;2022-08-19T04:01:59;16.30;;;15.00;;
19566;SDS011;9930;49.240;8.548;2022-08-19T04:04:28;15.18;;;13.85;;
19566;SDS011;9930;49.240;8.548;2022-08-19T04:06:56;16.05;;;14.73;;
19566;SDS011;9930;49.240;8.548;2022-08-19T04:09:25;15.10;;;13.88;;
19566;SDS011;9930;49.240;8.548;2022-08-19T04:11:54;15.88;;;14.50;;
19566;SDS011;9930;49.240;8.548;2022-08-19T04:14:27;16.50;;;15.00;;
19566;SDS011;9930;49.240;8.548;2022-08-19T04:16:59;15.82;;;14.52;;
19566;SDS011;9930;49.240;8.548;2022-08-19T04:19:30;15.57;;;14.18;;
19566;SDS011;9930;49.240;8.548;2022-08-19T04:22:03;15.10;;;13.80;;
19566;SDS011;9930;49.240;8.548;2022-08-19T04:24:34;15.27;;;14.07;;
19566;SDS011;9930;49.240;8.548;2022-08-19T04:27:01;14.73;;;13.55;;
19566;SDS011;9930;49.240;8.548;2022-08-19T04:29:28;15.38;;;14.10;;
19566;SDS011;9930;49.240;8.548;2022-08-19T04:31:57;13.77;;;12.68;;
19566;SDS011;9930;49.240;8.548;2022-08-19T04:34:25;14.70;;;13.43;;
19566;SDS011;9930;49.240;8.548;2022-08-19T04:36:54;18.48;;;13.70;;
19566;SDS011;9930;49.240;8.548;2022-08-19T04:39:24;13.95;;;12.85;;
19566;SDS011;9930;49.240;8.548;2022-08-19T04:42:15;14.30;;;13.13;;
19566;SDS011;9930;49.240;8.548;2022-08-19T04:45:02;14.07;;;12.88;;
19566;SDS011;9930;49.240;8.548;2022-08-19T04:47:32;14.35;;;13.25;;
19566;SDS011;9930;49.240;8.548;2022-08-19T04:49:58;14.20;;;12.93;;
19566;SDS011;9930;49.240;8.548;2022-08-19T04:52:24;14.25;;;13.13;;
19566;SDS011;9930;49.240;8.548;2022-08-19T04:54:50;14.20;;;13.00;;
19566;SDS011;9930;49.240;8.548;2022-08-19T04:57:16;14.18;;;12.88;;
19566;SDS011;9930;49.240;8.548;2022-08-19T04:59:41;13.98;;;12.88;;
19566;SDS011;9930;49.240;8.548;2022-08-19T05:02:10;13.57;;;12.55;;
19566;SDS011;9930;49.240;8.548;2022-08-19T05:04:36;12.35;;;11.35;;
19566;SDS011;9930;49.240;8.548;2022-08-19T05:07:07;14.55;;;13.32;;
19566;SDS011;9930;49.240;8.548;2022-08-19T05:09:37;13.32;;;12.23;;
19566;SDS011;9930;49.240;8.548;2022-08-19T05:12:08;12.93;;;11.88;;
19566;SDS011;9930;49.240;8.548;2022-08-19T05:14:38;13.48;;;12.48;;
19566;SDS011;9930;49.240;8.548;2022-08-19T05:17:07;13.88;;;12.68;;
19566;SDS011;9930;49.240;8.548;2022-08-19T05:19:35;13.88;;;12.68;;
19566;SDS011;9930;49.240;8.548;2022-08-19T05:22:22;13.70;;;12.60;;
19566;SDS011;9930;49.240;8.548;2022-08-19T05:24:58;13.48;;;12.32;;
19566;SDS011;9930;49.240;8.548;2022-08-19T05:27:38;13.05;;;12.05;;
19566;SDS011;9930;49.240;8.548;2022-08-19T05:30:08;13.73;;;12.63;;
19566;SDS011;9930;49.240;8.548;2022-08-19T05:32:38;13.27;;;12.18;;
19566;SDS011;9930;49.240;8.548;2022-08-19T05:35:05;14.00;;;12.80;;
19566;SDS011;9930;49.240;8.548;2022-08-19T05:37:32;12.40;;;11.40;;
19566;SDS011;9930;49.240;8.548;2022-08-19T05:40:02;12.75;;;11.80;;
19566;SDS011;9930;49.240;8.548;2022-08-19T05:42:33;13.13;;;12.02;;
19566;SDS011;9930;49.240;8.548;2022-08-19T05:45:10;12.73;;;11.73;;
19566;SDS011;9930;49.240;8.548;2022-08-19T05:47:43;14.02;;;12.98;;
19566;SDS011;9930;49.240;8.548;2022-08-19T05:50:14;13.13;;;12.07;;
19566;SDS011;9930;49.240;8.548;2022-08-19T05:52:43;13.07;;;11.98;;
19566;SDS011;9930;49.240;8.548;2022-08-19T05:55:09;13.07;;;12.07;;
19566;SDS011;9930;49.240;8.548;2022-08-19T05:57:40;12.85;;;11.85;;
19566;SDS011;9930;49.240;8.548;2022-08-19T06:00:07;13.38;;;12.27;;
19566;SDS011;9930;49.240;8.548;2022-08-19T06:02:38;13.10;;;12.10;;
19566;SDS011;9930;49.240;8.548;2022-08-19T06:05:07;11.70;;;10.77;;
19566;SDS011;9930;49.240;8.548;2022-08-19T06:07:36;13.63;;;12.32;;
19566;SDS011;9930;49.240;8.548;2022-08-19T06:10:06;13.30;;;12.25;;
19566;SDS011;9930;49.240;8.548;2022-08-19T06:12:38;13.00;;;11.90;;
19566;SDS011;9930;49.240;8.548;2022-08-19T06:15:07;12.20;;;11.18;;
19566;SDS011;9930;49.240;8.548;2022-08-19T06:17:38;11.85;;;10.85;;
19566;SDS011;9930;49.240;8.548;2022-08-19T06:20:09;12.27;;;11.23;;
19566;SDS011;9930;49.240;8.548;2022-08-19T06:22:44;12.77;;;11.70;;
19566;SDS011;9930;49.240;8.548;2022-08-19T06:25:16;11.25;;;10.38;;
19566;SDS011;9930;49.240;8.548;2022-08-19T06:27:45;12.18;;;11.20;;
19566;SDS011;9930;49.240;8.548;2022-08-19T06:30:11;11.75;;;10.80;;
19566;SDS011;9930;49.240;8.548;2022-08-19T06:32:38;11.88;;;10.88;;
19566;SDS011;9930;49.240;8.548;2022-08-19T06:35:06;11.32;;;10.52;;
19566;SDS011;9930;49.240;8.548;2022-08-19T06:37:33;12.43;;;11.38;;
19566;SDS011;9930;49.240;8.548;2022-08-19T06:40:03;11.85;;;10.82;;
19566;SDS011;9930;49.240;8.548;2022-08-19T06:42:37;12.25;;;11.07;;
19566;SDS011;9930;49.240;8.548;2022-08-19T06:45:07;11.88;;;10.82;;
19566;SDS011;9930;49.240;8.548;2022-08-19T06:47:37;11.85;;;10.90;;
19566;SDS011;9930;49.240;8.548;2022-08-19T06:50:05;11.60;;;10.70;;
19566;SDS011;9930;49.240;8.548;2022-08-19T06:52:37;12.35;;;11.13;;
19566;SDS011;9930;49.240;8.548;2022-08-19T06:55:06;10.82;;;9.95;;
19566;SDS011;9930;49.240;8.548;2022-08-19T06:57:33;11.15;;;10.30;;
19566;SDS011;9930;49.240;8.548;2022-08-19T07:00:06;11.27;;;10.38;;
19566;SDS011;9930;49.240;8.548;2022-08-19T07:02:41;10.40;;;9.60;;
19566;SDS011;9930;49.240;8.548;2022-08-19T07:05:08;10.63;;;9.82;;
19566;SDS011;9930;49.240;8.548;2022-08-19T07:07:37;10.38;;;9.63;;
19566;SDS011;9930;49.240;8.548;2022-08-19T07:10:04;11.48;;;10.48;;
19566;SDS011;9930;49.240;8.548;2022-08-19T07:12:41;10.95;;;10.05;;
19566;SDS011;9930;49.240;8.548;2022-08-19T07:15:08;10.50;;;9.70;;
19566;SDS011;9930;49.240;8.548;2022-08-19T07:17:37;10.85;;;10.05;;
19566;SDS011;9930;49.240;8.548;2022-08-19T07:20:08;9.07;;;8.38;;
19566;SDS011;9930;49.240;8.548;2022-08-19T07:22:38;9.55;;;8.75;;
19566;SDS011;9930;49.240;8.548;2022-08-19T07:25:08;10.10;;;9.27;;
19566;SDS011;9930;49.240;8.548;2022-08-19T07:27:38;10.30;;;9.60;;
19566;SDS011;9930;49.240;8.548;2022-08-19T07:30:12;10.63;;;9.82;;
19566;SDS011;9930;49.240;8.548;2022-08-19T07:32:41;9.73;;;8.93;;
19566;SDS011;9930;49.240;8.548;2022-08-19T07:35:08;9.82;;;9.02;;
19566;SDS011;9930;49.240;8.548;2022-08-19T07:37:37;10.32;;;9.52;;
19566;SDS011;9930;49.240;8.548;2022-08-19T07:40:09;9.07;;;8.38;;
19566;SDS011;9930;49.240;8.548;2022-08-19T07:42:42;9.68;;;8.98;;
19566;SDS011;9930;49.240;8.548;2022-08-19T07:45:08;9.68;;;8.90;;
19566;SDS011;9930;49.240;8.548;2022-08-19T07:47:37;9.55;;;8.82;;
19566;SDS011;9930;49.240;8.548;2022-08-19T07:50:08;9.90;;;9.10;;
19566;SDS011;9930;49.240;8.548;2022-08-19T07:52:37;9.57;;;8.82;;
19566;SDS011;9930;49.240;8.548;2022-08-19T07:55:09;9.20;;;8.50;;
19566;SDS011;9930;49.240;8.548;2022-08-19T07:57:38;9.50;;;8.77;;
19566;SDS011;9930;49.240;8.548;2022-08-19T08:00:11;9.77;;;8.98;;
19566;SDS011;9930;49.240;8.548;2022-08-19T08:02:42;8.82;;;8.13;;
19566;SDS011;9930;49.240;8.548;2022-08-19T08:05:08;9.60;;;8.80;;
19566;SDS011;9930;49.240;8.548;2022-08-19T08:08:01;9.63;;;8.80;;
19566;SDS011;9930;49.240;8.548;2022-08-19T08:10:45;9.55;;;8.75;;
19566;SDS011;9930;49.240;8.548;2022-08-19T08:13:11;9.27;;;8.55;;
19566;SDS011;9930;49.240;8.548;2022-08-19T08:15:38;7.85;;;7.15;;
19566;SDS011;9930;49.240;8.548;2022-08-19T08:18:05;8.68;;;8.00;;
19566;SDS011;9930;49.240;8.548;2022-08-19T08:20:33;8.20;;;7.60;;
19566;SDS011;9930;49.240;8.548;2022-08-19T08:23:03;7.78;;;7.18;;
19566;SDS011;9930;49.240;8.548;2022-08-19T08:25:50;9.88;;;8.93;;
19566;SDS011;9930;49.240;8.548;2022-08-19T08:28:19;8.30;;;7.60;;
19566;SDS011;9930;49.240;8.548;2022-08-19T08:30:49;8.40;;;7.80;;
19566;SDS011;9930;49.240;8.548;2022-08-19T08:33:18;8.02;;;7.43;;
19566;SDS011;9930;49.240;8.548;2022-08-19T08:35:47;7.75;;;7.13;;
19566;SDS011;9930;49.240;8.548;2022-08-19T08:38:13;7.85;;;7.20;;
19566;SDS011;9930;49.240;8.548;2022-08-19T08:40:47;8.55;;;7.82;;
19566;SDS011;9930;49.240;8.548;2022-08-19T08:43:34;7.85;;;7.10;;
19566;SDS011;9930;49.240;8.548;2022-08-19T08:46:12;7.70;;;7.00;;
19566;SDS011;9930;49.240;8.548;2022-08-19T08:54:47;5.68;;;5.18;;
19566;SDS011;9930;49.240;8.548;2022-08-19T08:57:28;5.57;;;5.10;;
19566;SDS011;9930;49.240;8.548;2022-08-19T09:00:22;5.30;;;4.75;;
19566;SDS011;9930;49.240;8.548;2022-08-19T09:02:55;4.90;;;4.55;;
19566;SDS011;9930;49.240;8.548;2022-08-19T09:05:42;5.53;;;5.03;;
19566;SDS011;9930;49.240;8.548;2022-08-19T09:11:11;5.18;;;4.78;;
19566;SDS011;9930;49.240;8.548;2022-08-19T09:16:35;4.75;;;4.45;;
19566;SDS011;9930;49.240;8.548;2022-08-19T09:19:08;5.35;;;4.85;;
19566;SDS011;9930;49.240;8.548;2022-08-19T09:21:41;4.55;;;4.25;;
19566;SDS011;9930;49.240;8.548;2022-08-19T09:24:08;4.32;;;4.00;;
19566;SDS011;9930;49.240;8.548;2022-08-19T09:26:37;4.43;;;4.13;;
19566;SDS011;9930;49.240;8.548;2022-08-19T09:29:06;4.40;;;4.00;;
19566;SDS011;9930;49.240;8.548;2022-08-19T09:31:37;4.68;;;3.97;;
19566;SDS011;9930;49.240;8.548;2022-08-19T09:34:04;4.60;;;4.28;;
19566;SDS011;9930;49.240;8.548;2022-08-19T09:36:33;4.85;;;4.50;;
19566;SDS011;9930;49.240;8.548;2022-08-19T09:39:08;5.30;;;5.00;;
19566;SDS011;9930;49.240;8.548;2022-08-19T09:41:35;5.75;;;5.25;;
19566;SDS011;9930;49.240;8.548;2022-08-19T09:44:04;4.28;;;3.97;;
19566;SDS011;9930;49.240;8.548;2022-08-19T09:46:38;4.50;;;4.20;;
19566;SDS011;9930;49.240;8.548;2022-08-19T09:49:07;5.75;;;5.25;;
19566;SDS011;9930;49.240;8.548;2022-08-19T09:51:34;5.90;;;5.40;;
19566;SDS011;9930;49.240;8.548;2022-08-19T09:54:06;5.10;;;4.70;;
19566;SDS011;9930;49.240;8.548;2022-08-19T09:56:34;5.30;;;5.00;;
19566;SDS011;9930;49.240;8.548;2022-08-19T09:59:07;4.70;;;4.40;;
19566;SDS011;9930;49.240;8.548;2022-08-19T10:01:41;5.00;;;4.65;;
19566;SDS011;9930;49.240;8.548;2022-08-19T10:04:08;5.70;;;5.18;;
19566;SDS011;9930;49.240;8.548;2022-08-19T10:06:36;5.22;;;4.82;;
19566;SDS011;9930;49.240;8.548;2022-08-19T10:09:08;5.80;;;5.40;;
19566;SDS011;9930;49.240;8.548;2022-08-19T10:11:40;4.80;;;4.50;;
19566;SDS011;9930;49.240;8.548;2022-08-19T10:14:08;5.18;;;4.80;;
19566;SDS011;9930;49.240;8.548;2022-08-19T10:16:36;4.90;;;4.50;;
19566;SDS011;9930;49.240;8.548;2022-08-19T10:19:08;5.30;;;4.85;;
19566;SDS011;9930;49.240;8.548;2022-08-19T10:21:38;5.47;;;5.07;;
19566;SDS011;9930;49.240;8.548;2022-08-19T10:24:06;5.80;;;4.88;;
19566;SDS011;9930;49.240;8.548;2022-08-19T10:26:34;5.82;;;5.28;;
19566;SDS011;9930;49.240;8.548;2022-08-19T10:29:09;5.50;;;5.05;;
19566;SDS011;9930;49.240;8.548;2022-08-19T10:31:41;5.30;;;5.00;;
19566;SDS011;9930;49.240;8.548;2022-08-19T10:34:08;5.80;;;5.35;;
19566;SDS011;9930;49.240;8.548;2022-08-19T10:36:37;5.15;;;4.75;;
19566;SDS011;9930;49.240;8.548;2022-08-19T10:39:08;5.72;;;5.32;;
19566;SDS011;9930;49.240;8.548;2022-08-19T10:41:38;5.75;;;5.35;;
19566;SDS011;9930;49.240;8.548;2022-08-19T10:44:09;5.45;;;4.70;;
19566;SDS011;9930;49.240;8.548;2022-08-19T10:46:39;5.68;;;5.28;;
19566;SDS011;9930;49.240;8.548;2022-08-19T10:49:10;5.50;;;5.03;;
19566;SDS011;9930;49.240;8.548;2022-08-19T10:51:38;5.88;;;5.47;;
19566;SDS011;9930;49.240;8.548;2022-08-19T10:54:24;5.53;;;5.18;;
19566;SDS011;9930;49.240;8.548;2022-08-19T10:57:09;6.00;;;5.50;;
19566;SDS011;9930;49.240;8.548;2022-08-19T10:59:37;5.13;;;4.72;;
19566;SDS011;9930;49.240;8.548;2022-08-19T11:02:09;5.57;;;4.88;;
19566;SDS011;9930;49.240;8.548;2022-08-19T11:04:38;5.13;;;4.72;;
19566;SDS011;9930;49.240;8.548;2022-08-19T11:07:07;4.40;;;4.10;;
19566;SDS011;9930;49.240;8.548;2022-08-19T11:09:39;5.20;;;4.78;;
19566;SDS011;9930;49.240;8.548;2022-08-19T11:12:09;4.95;;;4.43;;
19566;SDS011;9930;49.240;8.548;2022-08-19T11:14:40;5.50;;;5.10;;
19566;SDS011;9930;49.240;8.548;2022-08-19T11:17:07;4.90;;;4.60;;
19566;SDS011;9930;49.240;8.548;2022-08-19T11:19:34;5.00;;;4.60;;
19566;SDS011;9930;49.240;8.548;2022-08-19T11:22:08;4.97;;;4.57;;
19566;SDS011;9930;49.240;8.548;2022-08-19T11:24:37;5.25;;;4.95;;
19566;SDS011;9930;49.240;8.548;2022-08-19T11:27:07;5.00;;;4.70;;
19566;SDS011;9930;49.240;8.548;2022-08-19T11:29:38;4.90;;;4.60;;
19566;SDS011;9930;49.240;8.548;2022-08-19T11:32:09;4.63;;;4.30;;
19566;SDS011;9930;49.240;8.548;2022-08-19T11:34:37;4.80;;;4.50;;
19566;SDS011;9930;49.240;8.548;2022-08-19T11:37:05;5.32;;;4.93;;
19566;SDS011;9930;49.240;8.548;2022-08-19T11:39:37;5.45;;;5.13;;
19566;SDS011;9930;49.240;8.548;2022-08-19T11:42:11;5.80;;;5.50;;
19566;SDS011;9930;49.240;8.548;2022-08-19T11:44:55;5.38;;;5.07;;
19566;SDS011;9930;49.240;8.548;2022-08-19T11:47:21;5.07;;;4.75;;
19566;SDS011;9930;49.240;8.548;2022-08-19T11:49:47;6.28;;;5.07;;
19566;SDS011;9930;49.240;8.548;2022-08-19T11:52:13;4.93;;;4.63;;
19566;SDS011;9930;49.240;8.548;2022-08-19T11:54:41;5.35;;;4.95;;
19566;SDS011;9930;49.240;8.548;2022-08-19T11:57:08;5.00;;;4.70;;
19566;SDS011;9930;49.240;8.548;2022-08-19T11:59:35;4.35;;;4.05;;
19566;SDS011;9930;49.240;8.548;2022-08-19T12:02:07;5.30;;;4.90;;
19566;SDS011;9930;49.240;8.548;2022-08-19T12:04:37;4.93;;;4.63;;
19566;SDS011;9930;49.240;8.548;2022-08-19T12:07:07;5.07;;;4.72;;
19566;SDS011;9930;49.240;8.548;2022-08-19T12:09:38;4.80;;;4.50;;
19566;SDS011;9930;49.240;8.548;2022-08-19T12:12:05;4.85;;;4.55;;
19566;SDS011;9930;49.240;8.548;2022-08-19T12:14:32;4.47;;;4.18;;
19566;SDS011;9930;49.240;8.548;2022-08-19T12:17:04;4.30;;;4.00;;
19566;SDS011;9930;49.240;8.548;2022-08-19T12:19:36;4.03;;;3.72;;
19566;SDS011;9930;49.240;8.548;2022-08-19T12:22:06;3.88;;;3.65;;
19566;SDS011;9930;49.240;8.548;2022-08-19T12:24:33;3.80;;;3.60;;
19566;SDS011;9930;49.240;8.548;2022-08-19T12:27:05;4.10;;;3.80;;
19566;SDS011;9930;49.240;8.548;2022-08-19T12:29:33;4.13;;;3.83;;
19566;SDS011;9930;49.240;8.548;2022-08-19T12:32:12;3.88;;;3.58;;
19566;SDS011;9930;49.240;8.548;2022-08-19T12:34:38;4.00;;;3.80;;
19566;SDS011;9930;49.240;8.548;2022-08-19T12:37:05;4.00;;;3.70;;
19566;SDS011;9930;49.240;8.548;2022-08-19T12:39:40;4.22;;;3.92;;
19566;SDS011;9930;49.240;8.548;2022-08-19T12:42:09;4.35;;;4.05;;
19566;SDS011;9930;49.240;8.548;2022-08-19T12:44:38;4.32;;;4.03;;
19566;SDS011;9930;49.240;8.548;2022-08-19T12:47:09;4.22;;;3.92;;
19566;SDS011;9930;49.240;8.548;2022-08-19T12:49:38;4.07;;;3.78;;
19566;SDS011;9930;49.240;8.548;2022-08-19T12:52:08;4.00;;;3.70;;
19566;SDS011;9930;49.240;8.548;2022-08-19T12:54:36;4.13;;;3.83;;
19566;SDS011;9930;49.240;8.548;2022-08-19T12:57:08;3.90;;;3.70;;
19566;SDS011;9930;49.240;8.548;2022-08-19T12:59:37;3.97;;;3.78;;
19566;SDS011;9930;49.240;8.548;2022-08-19T13:02:05;4.43;;;4.07;;
19566;SDS011;9930;49.240;8.548;2022-08-19T13:04:38;4.78;;;4.43;;
19566;SDS011;9930;49.240;8.548;2022-08-19T13:07:08;4.28;;;3.97;;
19566;SDS011;9930;49.240;8.548;2022-08-19T13:09:38;4.00;;;3.70;;
19566;SDS011;9930;49.240;8.548;2022-08-19T13:12:08;4.68;;;4.38;;
19566;SDS011;9930;49.240;8.548;2022-08-19T13:14:39;4.07;;;3.80;;
19566;SDS011;9930;49.240;8.548;2022-08-19T13:17:08;3.92;;;3.63;;
19566;SDS011;9930;49.240;8.548;2022-08-19T13:19:37;4.35;;;3.95;;
19566;SDS011;9930;49.240;8.548;2022-08-19T13:22:07;3.90;;;3.60;;
19566;SDS011;9930;49.240;8.548;2022-08-19T13:24:35;4.40;;;4.10;;
19566;SDS011;9930;49.240;8.548;2022-08-19T13:27:05;4.95;;;4.50;;
19566;SDS011;9930;49.240;8.548;2022-08-19T13:29:34;4.50;;;4.20;;
19566;SDS011;9930;49.240;8.548;2022-08-19T13:32:23;3.90;;;3.60;;
19566;SDS011;9930;49.240;8.548;2022-08-19T13:35:08;4.10;;;3.80;;
19566;SDS011;9930;49.240;8.548;2022-08-19T13:37:38;3.80;;;3.50;;
19566;SDS011;9930;49.240;8.548;2022-08-19T13:40:18;3.80;;;3.60;;
19566;SDS011;9930;49.240;8.548;2022-08-19T13:42:53;3.80;;;3.53;;
19566;SDS011;9930;49.240;8.548;2022-08-19T13:45:21;3.92;;;3.72;;
19566;SDS011;9930;49.240;8.548;2022-08-19T13:47:50;3.40;;;3.20;;
19566;SDS011;9930;49.240;8.548;2022-08-19T13:50:20;3.75;;;3.53;;
19566;SDS011;9930;49.240;8.548;2022-08-19T13:52:54;3.78;;;3.58;;
19566;SDS011;9930;49.240;8.548;2022-08-19T13:55:23;3.85;;;3.28;;
19566;SDS011;9930;49.240;8.548;2022-08-19T13:57:57;3.70;;;3.50;;
19566;SDS011;9930;49.240;8.548;2022-08-19T14:00:27;3.30;;;3.10;;
19566;SDS011;9930;49.240;8.548;2022-08-19T14:03:03;3.42;;;3.20;;
19566;SDS011;9930;49.240;8.548;2022-08-19T14:05:33;3.80;;;3.45;;
19566;SDS011;9930;49.240;8.548;2022-08-19T14:08:08;3.22;;;2.92;;
19566;SDS011;9930;49.240;8.548;2022-08-19T14:10:35;3.33;;;3.13;;
19566;SDS011;9930;49.240;8.548;2022-08-19T14:13:08;3.22;;;3.00;;
19566;SDS011;9930;49.240;8.548;2022-08-19T14:15:37;3.40;;;3.20;;
19566;SDS011;9930;49.240;8.548;2022-08-19T14:18:08;3.50;;;3.30;;
19566;SDS011;9930;49.240;8.548;2022-08-19T14:20:34;3.75;;;3.45;;
19566;SDS011;9930;49.240;8.548;2022-08-19T14:23:05;3.40;;;3.20;;
19566;SDS011;9930;49.240;8.548;2022-08-19T14:25:40;3.28;;;3.08;;
19566;SDS011;9930;49.240;8.548;2022-08-19T14:28:08;3.15;;;2.95;;
19566;SDS011;9930;49.240;8.548;2022-08-19T14:30:38;3.30;;;3.10;;
19566;SDS011;9930;49.240;8.548;2022-08-19T14:33:08;3.17;;;2.97;;
19566;SDS011;9930;49.240;8.548;2022-08-19T14:35:34;3.15;;;2.95;;
19566;SDS011;9930;49.240;8.548;2022-08-19T14:38:04;2.90;;;2.70;;
19566;SDS011;9930;49.240;8.548;2022-08-19T14:40:41;3.15;;;2.95;;
19566;SDS011;9930;49.240;8.548;2022-08-19T14:43:10;3.05;;;2.85;;
19566;SDS011;9930;49.240;8.548;2022-08-19T14:45:38;2.92;;;2.72;;
19566;SDS011;9930;49.240;8.548;2022-08-19T14:48:08;3.20;;;3.00;;
19566;SDS011;9930;49.240;8.548;2022-08-19T14:50:36;3.00;;;2.80;;
19566;SDS011;9930;49.240;8.548;2022-08-19T14:53:05;3.35;;;3.15;;
19566;SDS011;9930;49.240;8.548;2022-08-19T14:55:39;3.20;;;2.90;;
19566;SDS011;9930;49.240;8.548;2022-08-19T14:58:12;3.15;;;2.95;;
19566;SDS011;9930;49.240;8.548;2022-08-19T15:00:40;3.13;;;2.92;;
19566;SDS011;9930;49.240;8.548;2022-08-19T15:03:08;3.03;;;2.80;;
19566;SDS011;9930;49.240;8.548;2022-08-19T15:05:34;3.10;;;2.90;;
19566;SDS011;9930;49.240;8.548;2022-08-19T15:08:06;3.10;;;2.90;;
19566;SDS011;9930;49.240;8.548;2022-08-19T15:10:35;3.15;;;2.95;;
19566;SDS011;9930;49.240;8.548;2022-08-19T15:13:12;2.95;;;2.75;;
19566;SDS011;9930;49.240;8.548;2022-08-19T15:15:38;3.47;;;3.20;;
19566;SDS011;9930;49.240;8.548;2022-08-19T15:18:06;2.95;;;2.75;;
19566;SDS011;9930;49.240;8.548;2022-08-19T15:20:38;3.40;;;3.20;;
19566;SDS011;9930;49.240;8.548;2022-08-19T15:23:11;3.20;;;3.00;;